createdAt,value
2018-08-20T00:01:21.199Z,6.35
2018-08-20T00:03:50.563Z,6.33
2018-08-20T00:06:19.313Z,6.80
2018-08-20T00:08:47.683Z,6.58
2018-08-20T00:11:16.003Z,5.28
2018-08-20T00:13:44.352Z,5.50
2018-08-20T00:16:12.677Z,5.75
2018-08-20T00:18:41.020Z,5.37
2018-08-20T00:21:09.661Z,5.20
2018-08-20T00:23:38.000Z,5.53
2018-08-20T00:26:06.319Z,5.20
2018-08-20T00:28:34.670Z,5.45
2018-08-20T00:31:03.014Z,5.22
2018-08-20T00:33:31.409Z,5.15
2018-08-20T00:35:59.751Z,5.15
2018-08-20T00:38:28.083Z,4.90
2018-08-20T00:40:56.416Z,4.78
2018-08-20T00:43:24.781Z,4.83
2018-08-20T00:45:53.096Z,4.83
2018-08-20T00:48:21.448Z,5.05
2018-08-20T00:50:49.775Z,4.15
2018-08-20T00:53:18.120Z,4.58
2018-08-20T00:55:46.440Z,5.40
2018-08-20T00:58:14.796Z,5.20
2018-08-20T01:00:43.121Z,4.65
2018-08-20T01:03:11.462Z,5.40
2018-08-20T01:05:39.784Z,5.03
2018-08-20T01:08:08.123Z,5.00
2018-08-20T01:10:36.451Z,4.75
2018-08-20T01:13:04.812Z,4.95
2018-08-20T01:15:33.260Z,4.47
2018-08-20T01:18:01.664Z,4.55
2018-08-20T01:20:30.008Z,5.30
2018-08-20T01:22:58.412Z,4.92
2018-08-20T01:25:26.757Z,5.50
2018-08-20T01:27:55.128Z,5.12
2018-08-20T01:30:23.520Z,5.05
2018-08-20T01:32:55.857Z,5.33
2018-08-20T01:35:27.368Z,4.70
2018-08-20T01:37:55.822Z,4.97
2018-08-20T01:40:24.644Z,5.08
2018-08-20T01:42:52.993Z,5.40
2018-08-20T01:45:21.376Z,4.55
2018-08-20T01:47:49.709Z,5.08
2018-08-20T01:50:18.075Z,4.72
2018-08-20T01:52:46.420Z,5.70
2018-08-20T01:55:14.825Z,5.03
2018-08-20T01:57:43.211Z,5.00
2018-08-20T02:00:11.700Z,4.75
2018-08-20T02:02:40.080Z,5.10
2018-08-20T02:05:08.847Z,5.50
2018-08-20T02:07:37.500Z,4.80
2018-08-20T02:10:06.987Z,6.33
2018-08-20T02:12:35.340Z,6.35
2018-08-20T02:15:04.086Z,6.75
2018-08-20T02:17:32.508Z,6.65
2018-08-20T02:20:00.864Z,5.40
2018-08-20T02:22:29.220Z,6.72
2018-08-20T02:24:57.636Z,5.90
2018-08-20T02:27:25.985Z,6.00
2018-08-20T02:29:54.364Z,6.03
2018-08-20T02:32:22.737Z,6.03
2018-08-20T02:34:51.132Z,6.55
2018-08-20T02:37:19.507Z,6.08
2018-08-20T02:39:47.916Z,6.62
2018-08-20T02:42:16.272Z,5.70
2018-08-20T02:44:44.646Z,5.90
2018-08-20T02:47:12.993Z,5.97
2018-08-20T02:49:41.372Z,5.67
2018-08-20T02:52:09.728Z,5.47
2018-08-20T02:54:38.099Z,5.70
2018-08-20T02:57:06.479Z,6.53
2018-08-20T02:59:34.847Z,6.53
2018-08-20T03:02:03.267Z,5.30
2018-08-20T03:04:31.639Z,6.00
2018-08-20T03:06:59.991Z,6.30
2018-08-20T03:09:28.359Z,5.58
2018-08-20T03:11:56.705Z,6.62
2018-08-20T03:14:25.092Z,5.72
2018-08-20T03:16:53.464Z,5.60
2018-08-20T03:19:21.852Z,5.60
2018-08-20T03:21:50.193Z,6.90
2018-08-20T03:24:18.534Z,5.95
2018-08-20T03:26:46.923Z,5.45
2018-08-20T03:29:15.280Z,5.42
2018-08-20T03:31:43.660Z,5.40
2018-08-20T03:34:12.009Z,5.08
2018-08-20T03:36:40.406Z,7.78
2018-08-20T03:39:08.788Z,4.83
2018-08-20T03:41:37.171Z,5.60
2018-08-20T03:44:05.556Z,5.90
2018-08-20T03:46:33.936Z,6.25
2018-08-20T03:49:02.297Z,6.67
2018-08-20T03:51:30.692Z,6.60
2018-08-20T03:53:59.067Z,6.22
2018-08-20T03:56:27.468Z,6.05
2018-08-20T03:58:55.868Z,6.55
2018-08-20T04:01:25.315Z,6.08
2018-08-20T04:03:54.127Z,6.62
2018-08-20T04:06:22.508Z,6.40
2018-08-20T04:08:50.847Z,5.65
2018-08-20T04:11:19.222Z,6.25
2018-08-20T04:13:47.559Z,6.45
2018-08-20T04:16:15.927Z,5.85
2018-08-20T04:18:44.275Z,5.83
2018-08-20T04:21:12.642Z,6.50
2018-08-20T04:23:40.976Z,6.65
2018-08-20T04:26:09.380Z,7.40
2018-08-20T04:28:37.724Z,6.83
2018-08-20T04:31:06.099Z,6.08
2018-08-20T04:33:34.451Z,6.47
2018-08-20T04:36:02.860Z,6.95
2018-08-20T04:38:31.213Z,7.00
2018-08-20T04:40:59.588Z,7.45
2018-08-20T04:43:27.927Z,6.97
2018-08-20T04:45:56.304Z,7.35
2018-08-20T04:48:24.652Z,7.10
2018-08-20T04:50:53.101Z,7.25
2018-08-20T04:53:21.389Z,6.78
2018-08-20T04:55:49.752Z,5.90
2018-08-20T04:58:18.104Z,5.97
2018-08-20T05:00:46.476Z,6.30
2018-08-20T05:03:16.722Z,6.35
2018-08-20T05:05:45.108Z,6.55
2018-08-20T05:08:13.557Z,6.85
2018-08-20T05:10:41.946Z,6.15
2018-08-20T05:13:10.284Z,6.92
2018-08-20T05:15:38.655Z,6.55
2018-08-20T05:18:07.037Z,6.72
2018-08-20T05:20:35.420Z,6.72
2018-08-20T05:23:03.791Z,6.50
2018-08-20T05:25:32.155Z,5.70
2018-08-20T05:28:00.574Z,6.25
2018-08-20T05:30:28.962Z,5.80
2018-08-20T05:32:57.360Z,6.55
2018-08-20T05:35:25.773Z,6.28
2018-08-20T05:37:54.143Z,6.90
2018-08-20T05:40:22.505Z,6.10
2018-08-20T05:42:50.899Z,6.15
2018-08-20T05:45:19.310Z,6.35
2018-08-20T05:47:47.719Z,6.67
2018-08-20T05:50:16.075Z,6.70
2018-08-20T05:52:44.480Z,5.78
2018-08-20T05:55:12.828Z,6.47
2018-08-20T05:57:41.204Z,6.30
2018-08-20T06:00:13.172Z,6.62
2018-08-20T06:02:41.563Z,6.80
2018-08-20T06:05:09.977Z,5.55
2018-08-20T06:07:38.352Z,6.60
2018-08-20T06:10:07.645Z,6.55
2018-08-20T06:12:36.364Z,7.65
2018-08-20T06:15:06.920Z,6.53
2018-08-20T06:17:35.368Z,7.08
2018-08-20T06:20:03.847Z,6.05
2018-08-20T06:22:32.367Z,7.30
2018-08-20T06:25:00.715Z,6.15
2018-08-20T06:27:29.103Z,6.50
2018-08-20T06:29:57.487Z,7.08
2018-08-20T06:32:25.856Z,6.58
2018-08-20T06:34:54.245Z,6.80
2018-08-20T06:37:22.655Z,5.75
2018-08-20T06:39:50.991Z,7.12
2018-08-20T06:42:19.360Z,6.08
2018-08-20T06:44:47.748Z,7.08
2018-08-20T06:47:16.116Z,5.95
2018-08-20T06:49:44.460Z,6.42
2018-08-20T06:52:12.849Z,5.87
2018-08-20T06:54:41.184Z,6.12
2018-08-20T06:57:09.592Z,6.28
2018-08-20T06:59:38.116Z,5.90
2018-08-20T07:02:06.523Z,7.62
2018-08-20T07:04:34.884Z,6.60
2018-08-20T07:07:03.371Z,5.50
2018-08-20T07:09:31.717Z,6.60
2018-08-20T07:12:00.095Z,5.50
2018-08-20T07:14:28.452Z,5.65
2018-08-20T07:16:56.874Z,5.08
2018-08-20T07:19:25.231Z,5.47
2018-08-20T07:21:53.580Z,5.58
2018-08-20T07:24:21.977Z,5.37
2018-08-20T07:26:50.317Z,5.67
2018-08-20T07:29:31.863Z,6.20
2018-08-20T07:32:00.208Z,5.95
2018-08-20T07:34:28.592Z,6.33
2018-08-20T07:36:56.992Z,4.92
2018-08-20T07:39:25.406Z,5.85
2018-08-20T07:41:53.753Z,5.42
2018-08-20T07:44:22.128Z,5.47
2018-08-20T07:46:50.502Z,5.45
2018-08-20T07:49:19.456Z,5.42
2018-08-20T07:51:49.678Z,4.33
2018-08-20T07:54:18.368Z,4.72
2018-08-20T07:56:47.848Z,4.85
2018-08-20T07:59:16.604Z,4.67
2018-08-20T08:01:45.425Z,4.35
2018-08-20T08:04:13.940Z,3.97
2018-08-20T08:06:42.324Z,4.80
2018-08-20T08:09:11.620Z,5.20
2018-08-20T08:11:39.984Z,5.27
2018-08-20T08:14:08.403Z,4.70
2018-08-20T08:16:37.856Z,4.57
2018-08-20T08:19:06.416Z,4.50
2018-08-20T08:21:34.780Z,4.80
2018-08-20T08:24:03.841Z,5.03
2018-08-20T08:26:32.527Z,4.47
2018-08-20T08:29:00.949Z,4.07
2018-08-20T08:31:29.301Z,3.97
2018-08-20T08:33:57.719Z,4.60
2018-08-20T08:36:26.100Z,4.80
2018-08-20T08:38:54.501Z,5.53
2018-08-20T08:41:22.880Z,4.80
2018-08-20T08:43:51.298Z,4.90
2018-08-20T08:46:19.723Z,4.50
2018-08-20T08:48:48.096Z,4.00
2018-08-20T08:51:16.457Z,4.83
2018-08-20T08:53:44.851Z,4.37
2018-08-20T08:56:13.184Z,4.60
2018-08-20T08:58:41.551Z,4.03
2018-08-20T09:01:09.907Z,3.73
2018-08-20T09:03:38.367Z,3.83
2018-08-20T09:06:06.792Z,4.10
2018-08-20T09:08:35.165Z,3.63
2018-08-20T09:11:03.553Z,4.30
2018-08-20T09:13:32.045Z,4.03
2018-08-20T09:16:00.413Z,4.07
2018-08-20T09:18:28.780Z,3.80
2018-08-20T09:20:57.169Z,3.57
2018-08-20T09:23:25.511Z,3.80
2018-08-20T09:25:53.885Z,5.50
2018-08-20T09:28:22.251Z,4.10
2018-08-20T09:30:50.687Z,4.23
2018-08-20T09:33:19.048Z,4.70
2018-08-20T09:35:47.452Z,4.90
2018-08-20T09:38:15.854Z,3.70
2018-08-20T09:40:44.200Z,4.60
2018-08-20T09:43:12.544Z,4.20
2018-08-20T09:45:40.936Z,4.10
2018-08-20T09:48:09.377Z,4.20
2018-08-20T09:50:37.777Z,4.30
2018-08-20T09:53:07.013Z,4.60
2018-08-20T09:55:35.400Z,4.57
2018-08-20T09:58:03.792Z,4.57
2018-08-20T10:00:37.520Z,4.53
2018-08-20T10:03:05.860Z,4.43
2018-08-20T10:05:34.252Z,5.20
2018-08-20T10:08:02.632Z,4.83
2018-08-20T10:10:31.005Z,4.80
2018-08-20T10:12:59.355Z,4.80
2018-08-20T10:15:27.768Z,5.00
2018-08-20T10:17:56.148Z,4.67
2018-08-20T10:20:24.528Z,5.07
2018-08-20T10:22:52.912Z,5.40
2018-08-20T10:25:21.296Z,5.10
2018-08-20T10:27:49.640Z,5.10
2018-08-20T10:30:18.028Z,5.17
2018-08-20T10:32:46.372Z,4.70
2018-08-20T10:35:14.808Z,4.60
2018-08-20T10:37:43.200Z,5.03
2018-08-20T10:40:11.636Z,4.73
2018-08-20T10:42:40.004Z,5.00
2018-08-20T10:45:16.376Z,5.60
2018-08-20T10:47:51.672Z,6.00
2018-08-20T10:50:21.030Z,5.30
2018-08-20T10:52:50.776Z,5.13
2018-08-20T10:55:19.168Z,5.57
2018-08-20T10:57:47.522Z,5.20
2018-08-20T11:00:16.528Z,5.50
2018-08-20T11:02:44.886Z,5.30
2018-08-20T11:05:17.007Z,5.33
2018-08-20T11:07:45.410Z,4.97
2018-08-20T11:10:13.956Z,4.43
2018-08-20T11:12:42.290Z,5.47
2018-08-20T11:15:11.651Z,5.33
2018-08-20T11:17:40.044Z,4.30
2018-08-20T11:20:14.041Z,5.90
2018-08-20T11:22:42.606Z,4.80
2018-08-20T11:25:11.802Z,5.80
2018-08-20T11:27:40.478Z,4.60
2018-08-20T11:30:10.472Z,5.10
2018-08-20T11:32:38.908Z,5.27
2018-08-20T11:35:07.879Z,5.00
2018-08-20T11:37:36.284Z,4.80
2018-08-20T11:40:05.566Z,4.97
2018-08-20T11:42:33.948Z,5.57
2018-08-20T11:45:02.304Z,4.50
2018-08-20T11:47:30.688Z,4.83
2018-08-20T11:49:59.086Z,5.10
2018-08-20T11:52:27.484Z,5.40
2018-08-20T11:54:55.843Z,4.90
2018-08-20T11:57:24.253Z,4.67
2018-08-20T11:59:52.628Z,5.33
2018-08-20T12:02:21.024Z,4.70
2018-08-20T12:04:49.380Z,4.00
2018-08-20T12:07:17.859Z,5.10
2018-08-20T12:09:46.315Z,4.77
2018-08-20T12:12:14.704Z,4.50
2018-08-20T12:14:43.056Z,4.83
2018-08-20T12:17:11.463Z,5.10
2018-08-20T12:19:39.803Z,4.40
2018-08-20T12:22:08.196Z,4.50
2018-08-20T12:24:36.563Z,4.90
2018-08-20T12:27:05.001Z,5.17
2018-08-20T12:29:33.400Z,4.70
2018-08-20T12:32:01.772Z,4.50
2018-08-20T12:34:30.108Z,5.10
2018-08-20T12:36:58.569Z,5.77
2018-08-20T12:39:26.907Z,5.10
2018-08-20T12:41:55.272Z,5.00
2018-08-20T12:44:23.616Z,5.07
2018-08-20T12:46:52.020Z,4.60
2018-08-20T12:49:20.372Z,5.20
2018-08-20T12:51:48.755Z,5.10
2018-08-20T12:54:17.107Z,5.40
2018-08-20T12:56:45.451Z,3.97
2018-08-20T12:59:13.824Z,4.53
2018-08-20T13:01:42.160Z,4.80
2018-08-20T13:04:10.556Z,4.20
2018-08-20T13:06:38.912Z,5.00
2018-08-20T13:09:07.820Z,4.67
2018-08-20T13:11:36.195Z,4.80
2018-08-20T13:14:04.639Z,4.87
2018-08-20T13:16:32.988Z,4.63
2018-08-20T13:19:01.352Z,4.50
2018-08-20T13:21:29.813Z,4.70
2018-08-20T13:23:58.176Z,4.20
2018-08-20T13:26:26.557Z,4.57
2018-08-20T13:28:54.932Z,4.67
2018-08-20T13:31:23.276Z,4.53
2018-08-20T13:33:51.641Z,4.23
2018-08-20T13:36:20.016Z,4.17
2018-08-20T13:38:48.384Z,4.40
2018-08-20T13:41:16.768Z,4.60
2018-08-20T13:43:45.164Z,3.97
2018-08-20T13:46:13.520Z,4.07
2018-08-20T13:48:41.896Z,4.80
2018-08-20T13:51:10.248Z,3.97
2018-08-20T13:53:39.204Z,4.60
2018-08-20T13:56:07.920Z,4.37
2018-08-20T13:58:36.367Z,4.87
2018-08-20T14:01:04.858Z,4.30
2018-08-20T14:03:33.209Z,4.77
2018-08-20T14:06:01.596Z,5.00
2018-08-20T14:08:29.964Z,4.53
2018-08-20T14:10:58.344Z,4.30
2018-08-20T14:13:26.723Z,4.23
2018-08-20T14:15:55.071Z,4.40
2018-08-20T14:18:23.576Z,4.70
2018-08-20T14:21:03.459Z,4.43
2018-08-20T14:23:31.849Z,4.57
2018-08-20T14:26:00.233Z,4.60
2018-08-20T14:28:29.048Z,4.43
2018-08-20T14:30:57.425Z,4.60
2018-08-20T14:33:25.800Z,5.10
2018-08-20T14:35:54.168Z,4.73
2018-08-20T14:38:22.600Z,4.63
2018-08-20T14:40:50.940Z,5.10
2018-08-20T14:43:19.331Z,5.23
2018-08-20T14:45:52.956Z,5.17
2018-08-20T14:48:21.353Z,4.70
2018-08-20T14:50:49.719Z,5.37
2018-08-20T14:53:18.278Z,4.20
2018-08-20T14:55:46.648Z,4.90
2018-08-20T14:58:14.996Z,5.50
2018-08-20T15:00:43.388Z,4.67
2018-08-20T15:03:11.734Z,4.70
2018-08-20T15:05:40.268Z,4.63
2018-08-20T15:08:08.628Z,5.70
2018-08-20T15:10:37.095Z,5.37
2018-08-20T15:13:05.477Z,4.67
2018-08-20T15:15:33.993Z,5.70
2018-08-20T15:18:02.261Z,5.50
2018-08-20T15:20:30.636Z,5.00
2018-08-20T15:22:58.977Z,6.03
2018-08-20T15:25:27.423Z,5.53
2018-08-20T15:27:55.733Z,5.03
2018-08-20T15:30:24.129Z,5.80
2018-08-20T15:32:52.475Z,5.97
2018-08-20T15:35:20.850Z,5.47
2018-08-20T15:37:49.237Z,5.60
2018-08-20T15:40:17.637Z,5.00
2018-08-20T15:42:46.068Z,5.00
2018-08-20T15:45:14.456Z,4.90
2018-08-20T15:47:42.816Z,5.23
2018-08-20T15:50:11.224Z,5.20
2018-08-20T15:52:39.568Z,5.40
2018-08-20T15:55:07.984Z,6.03
2018-08-20T15:57:36.620Z,5.40
2018-08-20T16:00:06.472Z,5.50
2018-08-20T16:02:34.987Z,5.37
2018-08-20T16:05:03.400Z,5.33
2018-08-20T16:07:31.748Z,5.10
2018-08-20T16:10:00.150Z,5.80
2018-08-20T16:12:28.508Z,5.43
2018-08-20T16:14:56.909Z,6.27
2018-08-20T16:17:25.248Z,6.67
2018-08-20T16:19:53.642Z,5.57
2018-08-20T16:22:21.993Z,5.50
2018-08-20T16:24:50.367Z,4.87
2018-08-20T16:27:18.752Z,4.83
2018-08-20T16:29:47.124Z,5.23
2018-08-20T16:32:15.505Z,5.33
2018-08-20T16:34:43.892Z,5.40
2018-08-20T16:37:12.274Z,5.33
2018-08-20T16:39:40.710Z,5.50
2018-08-20T16:42:09.076Z,4.57
2018-08-20T16:44:37.424Z,5.70
2018-08-20T16:47:05.849Z,5.37
2018-08-20T16:49:34.207Z,5.50
2018-08-20T16:52:02.968Z,5.50
2018-08-20T16:54:31.380Z,4.73
2018-08-20T16:56:59.772Z,5.63
2018-08-20T16:59:28.118Z,5.40
2018-08-20T17:01:56.499Z,5.00
2018-08-20T17:04:38.480Z,5.00
2018-08-20T17:07:06.892Z,5.50
2018-08-20T17:09:35.244Z,5.07
2018-08-20T17:12:03.668Z,5.60
2018-08-20T17:14:32.068Z,4.53
2018-08-20T17:17:00.451Z,5.60
2018-08-20T17:19:28.800Z,5.30
2018-08-20T17:21:57.176Z,5.13
2018-08-20T17:24:40.706Z,5.30
2018-08-20T17:27:09.684Z,4.70
2018-08-20T17:29:38.224Z,5.10
2018-08-20T17:32:07.648Z,5.80
2018-08-20T17:34:40.299Z,5.00
2018-08-20T17:37:08.780Z,5.50
2018-08-20T17:39:52.712Z,5.53
2018-08-20T17:42:21.149Z,4.73
2018-08-20T17:44:49.449Z,5.00
2018-08-20T17:47:26.538Z,4.67
2018-08-20T17:49:56.184Z,4.17
2018-08-20T17:52:29.551Z,4.80
2018-08-20T17:55:00.344Z,4.40
2018-08-20T17:57:28.742Z,4.20
2018-08-20T18:00:24.228Z,4.60
2018-08-20T18:02:52.607Z,3.93
2018-08-20T18:05:22.407Z,4.50
2018-08-20T18:07:50.916Z,4.80
2018-08-20T18:10:19.276Z,4.00
2018-08-20T18:12:47.654Z,3.53
2018-08-20T18:15:16.196Z,4.20
2018-08-20T18:17:45.051Z,3.87
2018-08-20T18:20:13.403Z,3.40
2018-08-20T18:22:41.857Z,4.60
2018-08-20T18:25:10.224Z,4.23
2018-08-20T18:27:42.567Z,3.60
2018-08-20T18:30:11.662Z,4.80
2018-08-20T18:32:40.105Z,3.33
2018-08-20T18:35:08.493Z,3.60
2018-08-20T18:37:43.135Z,3.63
2018-08-20T18:40:11.536Z,3.67
2018-08-20T18:42:47.909Z,3.00
2018-08-20T18:45:16.278Z,3.60
2018-08-20T18:47:44.700Z,3.93
2018-08-20T18:50:13.048Z,3.90
2018-08-20T18:52:41.488Z,3.40
2018-08-20T18:55:09.852Z,3.50
2018-08-20T18:57:38.799Z,5.40
2018-08-20T19:00:12.110Z,4.40
2018-08-20T19:02:44.199Z,4.40
2018-08-20T19:05:13.936Z,3.67
2018-08-20T19:07:42.767Z,3.40
2018-08-20T19:10:18.329Z,3.70
2018-08-20T19:12:46.795Z,2.90
2018-08-20T19:15:31.227Z,3.70
2018-08-20T19:17:59.732Z,3.83
2018-08-20T19:20:28.104Z,3.50
2018-08-20T19:22:56.484Z,3.73
2018-08-20T19:25:24.848Z,3.10
2018-08-20T19:27:53.247Z,3.70
2018-08-20T19:30:25.704Z,3.80
2018-08-20T19:32:54.208Z,4.90
2018-08-20T19:35:22.584Z,3.87
2018-08-20T19:37:50.992Z,3.00
2018-08-20T19:40:19.384Z,3.37
2018-08-20T19:42:48.600Z,3.95
2018-08-20T19:45:16.952Z,3.60
2018-08-20T19:47:45.362Z,4.10
2018-08-20T19:50:13.764Z,3.58
2018-08-20T19:52:42.144Z,3.80
2018-08-20T19:55:11.957Z,3.62
2018-08-20T19:57:40.408Z,4.10
2018-08-20T20:00:11.432Z,3.55
2018-08-20T20:02:42.972Z,4.22
2018-08-20T20:05:14.684Z,3.77
2018-08-20T20:08:04.645Z,3.42
2018-08-20T20:10:33.055Z,4.00
2018-08-20T20:13:01.440Z,2.90
2018-08-20T20:15:32.309Z,4.50
2018-08-20T20:18:00.716Z,3.50
2018-08-20T20:20:29.064Z,3.20
2018-08-20T20:22:57.476Z,3.45
2018-08-20T20:25:25.838Z,4.05
2018-08-20T20:27:54.222Z,4.00
2018-08-20T20:30:22.667Z,4.17
2018-08-20T20:32:51.037Z,4.30
2018-08-20T20:35:19.435Z,3.67
2018-08-20T20:37:47.828Z,3.83
2018-08-20T20:40:16.209Z,4.20
2018-08-20T20:42:44.559Z,3.80
2018-08-20T20:45:12.964Z,3.70
2018-08-20T20:47:41.333Z,4.15
2018-08-20T20:50:09.740Z,3.55
2018-08-20T20:52:38.174Z,3.87
2018-08-20T20:55:06.544Z,4.67
2018-08-20T20:57:34.917Z,3.60
2018-08-20T21:00:03.348Z,4.03
2018-08-20T21:02:31.709Z,4.17
2018-08-20T21:05:06.116Z,3.70
2018-08-20T21:07:34.902Z,4.30
2018-08-20T21:10:03.352Z,3.80
2018-08-20T21:12:32.067Z,4.25
2018-08-20T21:15:00.468Z,4.12
2018-08-20T21:17:32.144Z,4.28
2018-08-20T21:20:00.716Z,4.10
2018-08-20T21:22:29.052Z,4.35
2018-08-20T21:24:57.456Z,3.92
2018-08-20T21:27:27.265Z,4.37
2018-08-20T21:29:58.841Z,4.20
2018-08-20T21:32:27.199Z,4.58
2018-08-20T21:34:55.604Z,4.83
2018-08-20T21:37:24.008Z,4.50
2018-08-20T21:39:52.380Z,4.67
2018-08-20T21:42:28.671Z,4.70
2018-08-20T21:44:58.029Z,5.50
2018-08-20T21:47:28.528Z,4.12
2018-08-20T21:49:56.915Z,4.00
2018-08-20T21:52:25.375Z,4.70
2018-08-20T21:54:53.757Z,3.90
2018-08-20T21:57:22.124Z,4.08
2018-08-20T22:00:03.252Z,3.52
2018-08-20T22:02:32.432Z,4.25
2018-08-20T22:05:00.820Z,3.80
2018-08-20T22:07:29.196Z,4.25
2018-08-20T22:09:57.593Z,4.47
2018-08-20T22:12:25.997Z,4.20
2018-08-20T22:14:54.407Z,4.20
2018-08-20T22:17:28.034Z,4.80
2018-08-20T22:19:56.420Z,4.65
2018-08-20T22:22:26.843Z,4.50
2018-08-20T22:24:57.604Z,4.05
2018-08-20T22:27:26.569Z,4.55
2018-08-20T22:29:54.996Z,4.22
2018-08-20T22:32:23.400Z,4.42
2018-08-20T22:34:51.781Z,4.60
2018-08-20T22:37:20.128Z,3.70
2018-08-20T22:39:54.623Z,4.80
2018-08-20T22:42:39.826Z,4.17
2018-08-20T22:45:08.229Z,3.90
2018-08-20T22:47:37.068Z,4.50
2018-08-20T22:50:05.980Z,4.35
2018-08-20T22:52:34.316Z,4.00
2018-08-20T22:55:02.752Z,4.80
2018-08-20T22:57:31.171Z,4.42
2018-08-20T22:59:59.572Z,4.45
2018-08-20T23:02:27.944Z,4.65
2018-08-20T23:05:02.184Z,3.85
2018-08-20T23:07:30.552Z,4.60
2018-08-20T23:09:58.947Z,4.65
2018-08-20T23:12:32.735Z,4.85
2018-08-20T23:15:01.446Z,4.72
2018-08-20T23:17:29.880Z,4.80
2018-08-20T23:19:58.264Z,4.47
2018-08-20T23:22:26.643Z,5.20
2018-08-20T23:24:57.916Z,5.60
2018-08-20T23:27:31.667Z,4.55
2018-08-20T23:30:00.012Z,4.85
2018-08-20T23:32:28.408Z,4.70
2018-08-20T23:34:57.788Z,5.10
2018-08-20T23:37:26.356Z,6.10
2018-08-20T23:39:54.719Z,4.95
2018-08-20T23:42:23.105Z,4.95
2018-08-20T23:44:52.174Z,5.53
2018-08-20T23:47:20.553Z,5.17
2018-08-20T23:49:48.932Z,5.25
2018-08-20T23:52:17.313Z,5.12
2018-08-20T23:54:45.658Z,4.75
2018-08-20T23:57:14.069Z,4.40
2018-08-20T23:59:42.417Z,5.17
